sensor_id;sensor_type;location;lat;lon;timestamp;pressure;altitude;pressure_sealevel;temperature;humidity
43436;BME280;36399;51.444;-2.018;2023-06-22T00:01:59;101480.13;;;14.13;100.00
43436;BME280;36399;51.444;-2.018;2023-06-22T00:04:25;101479.31;;;14.17;100.00
43436;BME280;36399;51.444;-2.018;2023-06-22T00:06:51;101482.94;;;14.25;100.00
43436;BME280;36399;51.444;-2.018;2023-06-22T00:09:17;101490.88;;;14.25;100.00
43436;BME280;36399;51.444;-2.018;2023-06-22T00:11:43;101484.56;;;14.14;100.00
43436;BME280;36399;51.444;-2.018;2023-06-22T00:14:09;101481.13;;;14.21;100.00
43436;BME280;36399;51.444;-2.018;2023-06-22T00:16:35;101490.84;;;14.22;100.00
43436;BME280;36399;51.444;-2.018;2023-06-22T00:19:01;101493.47;;;14.22;100.00
43436;BME280;36399;51.444;-2.018;2023-06-22T00:21:28;101488.19;;;14.22;100.00
43436;BME280;36399;51.444;-2.018;2023-06-22T00:23:54;101489.13;;;14.27;100.00
43436;BME280;36399;51.444;-2.018;2023-06-22T00:26:20;101495.31;;;14.28;100.00
43436;BME280;36399;51.444;-2.018;2023-06-22T00:28:47;101493.44;;;14.19;100.00
43436;BME280;36399;51.444;-2.018;2023-06-22T00:31:13;101495.19;;;14.20;100.00
43436;BME280;36399;51.444;-2.018;2023-06-22T00:33:39;101506.69;;;14.22;100.00
43436;BME280;36399;51.444;-2.018;2023-06-22T00:36:05;101502.09;;;14.09;100.00
43436;BME280;36399;51.444;-2.018;2023-06-22T00:38:34;101514.44;;;14.10;100.00
43436;BME280;36399;51.444;-2.018;2023-06-22T00:41:00;101517.66;;;13.94;100.00
43436;BME280;36399;51.444;-2.018;2023-06-22T00:43:26;101526.31;;;13.85;100.00
43436;BME280;36399;51.444;-2.018;2023-06-22T00:45:52;101525.50;;;13.87;100.00
43436;BME280;36399;51.444;-2.018;2023-06-22T00:48:18;101519.34;;;13.88;100.00
43436;BME280;36399;51.444;-2.018;2023-06-22T00:50:44;101524.47;;;13.79;100.00
43436;BME280;36399;51.444;-2.018;2023-06-22T00:53:10;101527.97;;;13.78;100.00
43436;BME280;36399;51.444;-2.018;2023-06-22T00:55:39;101525.38;;;13.80;100.00
43436;BME280;36399;51.444;-2.018;2023-06-22T00:58:09;101528.97;;;13.85;100.00
43436;BME280;36399;51.444;-2.018;2023-06-22T01:00:37;101536.66;;;13.71;100.00
43436;BME280;36399;51.444;-2.018;2023-06-22T01:03:03;101538.28;;;13.63;100.00
43436;BME280;36399;51.444;-2.018;2023-06-22T01:05:31;101542.50;;;13.53;100.00
43436;BME280;36399;51.444;-2.018;2023-06-22T01:10:55;101544.94;;;13.43;100.00
43436;BME280;36399;51.444;-2.018;2023-06-22T01:16:08;101555.88;;;13.64;100.00
43436;BME280;36399;51.444;-2.018;2023-06-22T01:18:42;101547.16;;;13.68;100.00
43436;BME280;36399;51.444;-2.018;2023-06-22T01:21:13;101552.34;;;13.62;100.00
43436;BME280;36399;51.444;-2.018;2023-06-22T01:26:17;101569.25;;;13.73;100.00
43436;BME280;36399;51.444;-2.018;2023-06-22T01:28:55;101565.47;;;13.59;100.00
43436;BME280;36399;51.444;-2.018;2023-06-22T01:31:24;101575.09;;;13.55;100.00
43436;BME280;36399;51.444;-2.018;2023-06-22T01:33:53;101562.84;;;13.59;100.00
43436;BME280;36399;51.444;-2.018;2023-06-22T01:36:21;101567.88;;;13.48;100.00
43436;BME280;36399;51.444;-2.018;2023-06-22T01:38:48;101566.09;;;13.46;100.00
43436;BME280;36399;51.444;-2.018;2023-06-22T01:41:15;101572.09;;;13.39;100.00
43436;BME280;36399;51.444;-2.018;2023-06-22T01:43:42;101580.75;;;13.32;100.00
43436;BME280;36399;51.444;-2.018;2023-06-22T01:46:09;101584.31;;;13.34;100.00
43436;BME280;36399;51.444;-2.018;2023-06-22T01:48:36;101596.75;;;13.41;100.00
43436;BME280;36399;51.444;-2.018;2023-06-22T01:51:02;101604.94;;;13.53;100.00
43436;BME280;36399;51.444;-2.018;2023-06-22T01:53:29;101599.56;;;13.50;100.00
43436;BME280;36399;51.444;-2.018;2023-06-22T01:55:56;101596.06;;;13.51;100.00
43436;BME280;36399;51.444;-2.018;2023-06-22T01:58:25;101603.06;;;13.49;100.00
43436;BME280;36399;51.444;-2.018;2023-06-22T02:01:03;101606.56;;;13.48;100.00
43436;BME280;36399;51.444;-2.018;2023-06-22T02:03:38;101612.84;;;13.53;100.00
43436;BME280;36399;51.444;-2.018;2023-06-22T02:06:07;101620.78;;;13.53;100.00
43436;BME280;36399;51.444;-2.018;2023-06-22T02:08:40;101612.06;;;13.57;100.00
43436;BME280;36399;51.444;-2.018;2023-06-22T02:11:09;101622.47;;;13.51;100.00
43436;BME280;36399;51.444;-2.018;2023-06-22T02:13:37;101620.63;;;13.47;100.00
43436;BME280;36399;51.444;-2.018;2023-06-22T02:16:03;101625.78;;;13.41;100.00
43436;BME280;36399;51.444;-2.018;2023-06-22T02:18:29;101624.88;;;13.40;100.00
43436;BME280;36399;51.444;-2.018;2023-06-22T02:20:55;101631.09;;;13.44;100.00
43436;BME280;36399;51.444;-2.018;2023-06-22T02:23:21;101634.66;;;13.46;100.00
43436;BME280;36399;51.444;-2.018;2023-06-22T02:25:47;101636.31;;;13.41;100.00
43436;BME280;36399;51.444;-2.018;2023-06-22T02:28:13;101641.69;;;13.45;100.00
43436;BME280;36399;51.444;-2.018;2023-06-22T02:30:39;101639.91;;;13.44;100.00
43436;BME280;36399;51.444;-2.018;2023-06-22T02:33:05;101651.44;;;13.49;100.00
43436;BME280;36399;51.444;-2.018;2023-06-22T02:35:31;101651.56;;;13.54;100.00
43436;BME280;36399;51.444;-2.018;2023-06-22T02:37:58;101655.38;;;13.70;100.00
43436;BME280;36399;51.444;-2.018;2023-06-22T02:40:27;101657.06;;;13.65;100.00
43436;BME280;36399;51.444;-2.018;2023-06-22T02:42:53;101656.09;;;13.61;100.00
43436;BME280;36399;51.444;-2.018;2023-06-22T02:45:19;101650.81;;;13.61;100.00
43436;BME280;36399;51.444;-2.018;2023-06-22T02:47:45;101655.25;;;13.62;100.00
43436;BME280;36399;51.444;-2.018;2023-06-22T02:50:11;101658.81;;;13.64;100.00
43436;BME280;36399;51.444;-2.018;2023-06-22T02:52:37;101662.50;;;13.74;100.00
43436;BME280;36399;51.444;-2.018;2023-06-22T02:55:05;101651.72;;;13.62;100.00
43436;BME280;36399;51.444;-2.018;2023-06-22T02:57:32;101652.66;;;13.65;100.00
43436;BME280;36399;51.444;-2.018;2023-06-22T02:59:59;101652.59;;;13.62;100.00
43436;BME280;36399;51.444;-2.018;2023-06-22T03:02:25;101651.50;;;13.52;100.00
43436;BME280;36399;51.444;-2.018;2023-06-22T03:04:52;101655.00;;;13.51;100.00
43436;BME280;36399;51.444;-2.018;2023-06-22T03:07:20;101657.69;;;13.53;100.00
43436;BME280;36399;51.444;-2.018;2023-06-22T03:09:46;101650.44;;;13.43;100.00
43436;BME280;36399;51.444;-2.018;2023-06-22T03:12:12;101650.38;;;13.40;100.00
43436;BME280;36399;51.444;-2.018;2023-06-22T03:14:38;101642.34;;;13.34;100.00
43436;BME280;36399;51.444;-2.018;2023-06-22T03:17:04;101636.16;;;13.32;100.00
43436;BME280;36399;51.444;-2.018;2023-06-22T03:19:30;101645.75;;;13.28;100.00
43436;BME280;36399;51.444;-2.018;2023-06-22T03:22:00;101644.84;;;13.27;100.00
43436;BME280;36399;51.444;-2.018;2023-06-22T03:24:26;101650.00;;;13.21;100.00
43436;BME280;36399;51.444;-2.018;2023-06-22T03:26:54;101648.16;;;13.17;100.00
43436;BME280;36399;51.444;-2.018;2023-06-22T03:29:20;101653.34;;;13.14;100.00
43436;BME280;36399;51.444;-2.018;2023-06-22T03:31:46;101654.19;;;13.13;100.00
43436;BME280;36399;51.444;-2.018;2023-06-22T03:34:12;101649.72;;;13.09;100.00
43436;BME280;36399;51.444;-2.018;2023-06-22T03:36:38;101642.59;;;13.05;100.00
43436;BME280;36399;51.444;-2.018;2023-06-22T03:39:04;101643.41;;;13.01;100.00
43436;BME280;36399;51.444;-2.018;2023-06-22T03:41:30;101644.31;;;13.03;100.00
43436;BME280;36399;51.444;-2.018;2023-06-22T03:43:56;101646.97;;;13.05;100.00
43436;BME280;36399;51.444;-2.018;2023-06-22T03:46:22;101650.44;;;13.02;100.00
43436;BME280;36399;51.444;-2.018;2023-06-22T03:48:48;101657.28;;;12.95;100.00
43436;BME280;36399;51.444;-2.018;2023-06-22T03:51:14;101655.44;;;12.91;100.00
43436;BME280;36399;51.444;-2.018;2023-06-22T03:53:40;101647.50;;;12.90;100.00
43436;BME280;36399;51.444;-2.018;2023-06-22T03:56:06;101658.91;;;12.89;100.00
43436;BME280;36399;51.444;-2.018;2023-06-22T03:58:31;101648.47;;;12.93;100.00
43436;BME280;36399;51.444;-2.018;2023-06-22T04:00:58;101654.56;;;12.91;100.00
43436;BME280;36399;51.444;-2.018;2023-06-22T04:03:25;101659.69;;;12.85;100.00
43436;BME280;36399;51.444;-2.018;2023-06-22T04:05:51;101652.56;;;12.81;100.00
43436;BME280;36399;51.444;-2.018;2023-06-22T04:08:17;101647.09;;;12.72;100.00
43436;BME280;36399;51.444;-2.018;2023-06-22T04:10:43;101642.63;;;12.68;100.00
43436;BME280;36399;51.444;-2.018;2023-06-22T04:13:10;101644.34;;;12.66;100.00
43436;BME280;36399;51.444;-2.018;2023-06-22T04:15:36;101638.34;;;12.73;100.00
43436;BME280;36399;51.444;-2.018;2023-06-22T04:18:02;101643.53;;;12.70;100.00
43436;BME280;36399;51.444;-2.018;2023-06-22T04:20:28;101639.91;;;12.64;100.00
43436;BME280;36399;51.444;-2.018;2023-06-22T04:22:54;101638.88;;;12.58;100.00
43436;BME280;36399;51.444;-2.018;2023-06-22T04:25:20;101644.91;;;12.52;100.00
43436;BME280;36399;51.444;-2.018;2023-06-22T04:27:47;101638.72;;;12.50;100.00
43436;BME280;36399;51.444;-2.018;2023-06-22T04:30:14;101647.75;;;12.61;100.00
43436;BME280;36399;51.444;-2.018;2023-06-22T04:32:42;101655.03;;;12.73;100.00
43436;BME280;36399;51.444;-2.018;2023-06-22T04:35:09;101660.00;;;12.99;100.00
43436;BME280;36399;51.444;-2.018;2023-06-22T04:37:35;101660.72;;;12.91;100.00
43436;BME280;36399;51.444;-2.018;2023-06-22T04:40:01;101655.47;;;12.93;100.00
43436;BME280;36399;51.444;-2.018;2023-06-22T04:42:30;101660.97;;;13.01;100.00
43436;BME280;36399;51.444;-2.018;2023-06-22T04:44:57;101668.91;;;13.02;100.00
43436;BME280;36399;51.444;-2.018;2023-06-22T04:47:26;101665.38;;;13.02;100.00
43436;BME280;36399;51.444;-2.018;2023-06-22T04:49:52;101668.94;;;13.04;100.00
43436;BME280;36399;51.444;-2.018;2023-06-22T04:52:18;101670.78;;;13.08;100.00
43436;BME280;36399;51.444;-2.018;2023-06-22T04:54:46;101681.28;;;13.06;100.00
43436;BME280;36399;51.444;-2.018;2023-06-22T04:57:16;101685.59;;;13.03;100.00
43436;BME280;36399;51.444;-2.018;2023-06-22T04:59:42;101682.94;;;13.01;100.00
43436;BME280;36399;51.444;-2.018;2023-06-22T05:02:09;101689.88;;;12.99;100.00
43436;BME280;36399;51.444;-2.018;2023-06-22T05:04:35;101674.75;;;12.90;100.00
43436;BME280;36399;51.444;-2.018;2023-06-22T05:07:04;101674.91;;;12.96;100.00
43436;BME280;36399;51.444;-2.018;2023-06-22T05:09:33;101679.44;;;13.02;100.00
43436;BME280;36399;51.444;-2.018;2023-06-22T05:11:59;101683.72;;;12.99;100.00
43436;BME280;36399;51.444;-2.018;2023-06-22T05:14:29;101689.41;;;13.15;100.00
43436;BME280;36399;51.444;-2.018;2023-06-22T05:16:55;101689.38;;;13.14;100.00
43436;BME280;36399;51.444;-2.018;2023-06-22T05:19:25;101694.06;;;13.27;100.00
43436;BME280;36399;51.444;-2.018;2023-06-22T05:21:57;101692.47;;;13.35;100.00
43436;BME280;36399;51.444;-2.018;2023-06-22T05:24:22;101697.97;;;13.46;100.00
43436;BME280;36399;51.444;-2.018;2023-06-22T05:26:48;101702.59;;;13.54;100.00
43436;BME280;36399;51.444;-2.018;2023-06-22T05:29:14;101699.91;;;13.53;100.00
43436;BME280;36399;51.444;-2.018;2023-06-22T05:31:43;101703.78;;;13.70;100.00
43436;BME280;36399;51.444;-2.018;2023-06-22T05:34:09;101703.94;;;13.78;100.00
43436;BME280;36399;51.444;-2.018;2023-06-22T05:36:35;101711.97;;;13.84;100.00
43436;BME280;36399;51.444;-2.018;2023-06-22T05:39:11;101714.06;;;14.03;100.00
43436;BME280;36399;51.444;-2.018;2023-06-22T05:41:38;101717.75;;;14.10;100.00
43436;BME280;36399;51.444;-2.018;2023-06-22T05:44:04;101719.63;;;14.15;100.00
43436;BME280;36399;51.444;-2.018;2023-06-22T05:46:30;101722.38;;;14.23;100.00
43436;BME280;36399;51.444;-2.018;2023-06-22T05:48:56;101722.34;;;14.20;100.00
43436;BME280;36399;51.444;-2.018;2023-06-22T05:51:21;101725.19;;;14.32;100.00
43436;BME280;36399;51.444;-2.018;2023-06-22T05:53:47;101727.84;;;14.32;100.00
43436;BME280;36399;51.444;-2.018;2023-06-22T05:56:16;101729.59;;;14.33;100.00
43436;BME280;36399;51.444;-2.018;2023-06-22T05:58:42;101736.72;;;14.37;100.00
43436;BME280;36399;51.444;-2.018;2023-06-22T06:01:08;101728.00;;;14.41;100.00
43436;BME280;36399;51.444;-2.018;2023-06-22T06:03:34;101739.59;;;14.49;100.00
43436;BME280;36399;51.444;-2.018;2023-06-22T06:06:07;101735.38;;;14.58;100.00
43436;BME280;36399;51.444;-2.018;2023-06-22T06:08:33;101736.38;;;14.66;100.00
43436;BME280;36399;51.444;-2.018;2023-06-22T06:11:00;101750.72;;;14.80;100.00
43436;BME280;36399;51.444;-2.018;2023-06-22T06:13:28;101739.31;;;14.84;100.00
43436;BME280;36399;51.444;-2.018;2023-06-22T06:15:56;101732.25;;;14.83;100.00
43436;BME280;36399;51.444;-2.018;2023-06-22T06:18:22;101727.06;;;14.89;100.00
43436;BME280;36399;51.444;-2.018;2023-06-22T06:20:49;101719.31;;;15.03;100.00
43436;BME280;36399;51.444;-2.018;2023-06-22T06:23:15;101729.94;;;15.06;100.00
43436;BME280;36399;51.444;-2.018;2023-06-22T06:25:41;101724.78;;;15.12;100.00
43436;BME280;36399;51.444;-2.018;2023-06-22T06:28:07;101728.34;;;15.15;100.00
43436;BME280;36399;51.444;-2.018;2023-06-22T06:30:33;101725.91;;;15.31;100.00
43436;BME280;36399;51.444;-2.018;2023-06-22T06:32:59;101734.03;;;15.44;100.00
43436;BME280;36399;51.444;-2.018;2023-06-22T06:35:25;101724.31;;;15.43;100.00
43436;BME280;36399;51.444;-2.018;2023-06-22T06:37:50;101727.06;;;15.53;100.00
43436;BME280;36399;51.444;-2.018;2023-06-22T06:40:17;101729.03;;;15.64;100.00
43436;BME280;36399;51.444;-2.018;2023-06-22T06:42:46;101722.09;;;15.74;100.00
43436;BME280;36399;51.444;-2.018;2023-06-22T06:45:16;101714.31;;;15.88;100.00
43436;BME280;36399;51.444;-2.018;2023-06-22T06:47:43;101714.41;;;15.97;100.00
43436;BME280;36399;51.444;-2.018;2023-06-22T06:50:10;101703.94;;;16.09;100.00
43436;BME280;36399;51.444;-2.018;2023-06-22T06:52:36;101695.06;;;16.07;100.00
43436;BME280;36399;51.444;-2.018;2023-06-22T06:55:03;101687.03;;;15.96;100.00
43436;BME280;36399;51.444;-2.018;2023-06-22T06:57:34;101680.91;;;16.02;100.00
43436;BME280;36399;51.444;-2.018;2023-06-22T07:00:00;101674.00;;;16.16;100.00
43436;BME280;36399;51.444;-2.018;2023-06-22T07:02:26;101679.38;;;16.25;100.00
43436;BME280;36399;51.444;-2.018;2023-06-22T07:04:55;101678.63;;;16.43;100.00
43436;BME280;36399;51.444;-2.018;2023-06-22T07:07:21;101686.72;;;16.60;100.00
43436;BME280;36399;51.444;-2.018;2023-06-22T07:09:47;101686.84;;;16.69;100.00
43436;BME280;36399;51.444;-2.018;2023-06-22T07:12:13;101677.13;;;16.68;100.00
43436;BME280;36399;51.444;-2.018;2023-06-22T07:14:39;101669.34;;;16.95;100.00
43436;BME280;36399;51.444;-2.018;2023-06-22T07:17:05;101658.78;;;17.04;100.00
43436;BME280;36399;51.444;-2.018;2023-06-22T07:19:32;101641.03;;;16.97;100.00
43436;BME280;36399;51.444;-2.018;2023-06-22T07:21:58;101639.28;;;16.99;100.00
43436;BME280;36399;51.444;-2.018;2023-06-22T07:24:24;101638.41;;;17.02;100.00
43436;BME280;36399;51.444;-2.018;2023-06-22T07:26:53;101632.25;;;17.08;100.00
43436;BME280;36399;51.444;-2.018;2023-06-22T07:29:20;101622.63;;;17.28;100.00
43436;BME280;36399;51.444;-2.018;2023-06-22T07:31:47;101596.06;;;17.19;100.00
43436;BME280;36399;51.444;-2.018;2023-06-22T07:34:13;101583.72;;;17.28;100.00
43436;BME280;36399;51.444;-2.018;2023-06-22T07:36:39;101573.13;;;17.36;100.00
43436;BME280;36399;51.444;-2.018;2023-06-22T07:39:05;101561.63;;;17.43;100.00
43436;BME280;36399;51.444;-2.018;2023-06-22T07:41:31;101556.31;;;17.49;100.00
43436;BME280;36399;51.444;-2.018;2023-06-22T07:43:57;101536.03;;;17.68;100.00
43436;BME280;36399;51.444;-2.018;2023-06-22T07:46:23;101512.16;;;17.70;100.00
43436;BME280;36399;51.444;-2.018;2023-06-22T07:48:49;101497.97;;;17.92;100.00
43436;BME280;36399;51.444;-2.018;2023-06-22T07:51:15;101487.34;;;17.96;100.00
43436;BME280;36399;51.444;-2.018;2023-06-22T07:53:42;101471.41;;;17.89;100.00
43436;BME280;36399;51.444;-2.018;2023-06-22T07:56:13;101451.00;;;18.02;100.00
43436;BME280;36399;51.444;-2.018;2023-06-22T07:58:39;101432.41;;;18.09;100.00
43436;BME280;36399;51.444;-2.018;2023-06-22T08:01:05;101418.22;;;18.10;100.00
43436;BME280;36399;51.444;-2.018;2023-06-22T08:03:32;101412.88;;;18.15;100.00
43436;BME280;36399;51.444;-2.018;2023-06-22T08:05:58;101410.22;;;18.28;100.00
43436;BME280;36399;51.444;-2.018;2023-06-22T08:08:24;101400.41;;;18.40;100.00
43436;BME280;36399;51.444;-2.018;2023-06-22T08:10:50;101383.47;;;18.56;100.00
43436;BME280;36399;51.444;-2.018;2023-06-22T08:13:16;101377.22;;;18.72;100.00
43436;BME280;36399;51.444;-2.018;2023-06-22T08:15:42;101374.47;;;18.90;100.00
43436;BME280;36399;51.444;-2.018;2023-06-22T08:18:08;101365.56;;;18.95;100.00
43436;BME280;36399;51.444;-2.018;2023-06-22T08:20:34;101342.44;;;19.01;100.00
43436;BME280;36399;51.444;-2.018;2023-06-22T08:22:59;101332.72;;;18.96;100.00
43436;BME280;36399;51.444;-2.018;2023-06-22T08:25:32;101327.16;;;19.29;100.00
43436;BME280;36399;51.444;-2.018;2023-06-22T08:27:58;101314.66;;;19.34;100.00
43436;BME280;36399;51.444;-2.018;2023-06-22T08:30:24;101320.59;;;19.65;100.00
43436;BME280;36399;51.444;-2.018;2023-06-22T08:32:50;101286.03;;;19.58;100.00
43436;BME280;36399;51.444;-2.018;2023-06-22T08:35:19;101286.06;;;19.51;100.00
43436;BME280;36399;51.444;-2.018;2023-06-22T08:37:46;101278.22;;;19.41;100.00
43436;BME280;36399;51.444;-2.018;2023-06-22T08:40:19;101269.34;;;19.40;100.00
43436;BME280;36399;51.444;-2.018;2023-06-22T08:42:48;101272.75;;;19.56;100.00
43436;BME280;36399;51.444;-2.018;2023-06-22T08:45:15;101281.50;;;19.67;100.00
43436;BME280;36399;51.444;-2.018;2023-06-22T08:47:41;101263.72;;;19.68;100.00
43436;BME280;36399;51.444;-2.018;2023-06-22T08:50:09;101257.41;;;19.75;100.00
43436;BME280;36399;51.444;-2.018;2023-06-22T08:52:36;101251.72;;;20.05;100.00
43436;BME280;36399;51.444;-2.018;2023-06-22T08:55:02;101238.97;;;20.26;100.00
43436;BME280;36399;51.444;-2.018;2023-06-22T08:57:28;101207.13;;;20.16;100.00
43436;BME280;36399;51.444;-2.018;2023-06-22T08:59:56;101218.59;;;20.22;100.00
43436;BME280;36399;51.444;-2.018;2023-06-22T09:02:25;101222.81;;;20.38;100.00
43436;BME280;36399;51.444;-2.018;2023-06-22T09:04:51;101215.63;;;20.46;100.00
43436;BME280;36399;51.444;-2.018;2023-06-22T09:07:24;101208.88;;;20.76;100.00
43436;BME280;36399;51.444;-2.018;2023-06-22T09:09:54;101196.34;;;20.83;100.00
43436;BME280;36399;51.444;-2.018;2023-06-22T09:12:20;101197.06;;;20.91;100.00
43436;BME280;36399;51.444;-2.018;2023-06-22T09:14:50;101170.28;;;20.97;100.00
43436;BME280;36399;51.444;-2.018;2023-06-22T09:17:16;101168.53;;;20.94;100.00
43436;BME280;36399;51.444;-2.018;2023-06-22T09:19:42;101152.31;;;21.05;100.00
43436;BME280;36399;51.444;-2.018;2023-06-22T09:22:08;101146.28;;;21.41;100.00
43436;BME280;36399;51.444;-2.018;2023-06-22T09:24:36;101140.75;;;21.51;100.00
43436;BME280;36399;51.444;-2.018;2023-06-22T09:27:02;101126.00;;;21.73;100.00
43436;BME280;36399;51.444;-2.018;2023-06-22T09:29:28;101139.28;;;21.76;100.00
43436;BME280;36399;51.444;-2.018;2023-06-22T09:31:54;101151.56;;;21.86;100.00
43436;BME280;36399;51.444;-2.018;2023-06-22T09:34:21;101135.13;;;22.04;100.00
43436;BME280;36399;51.444;-2.018;2023-06-22T09:36:47;101121.13;;;22.29;100.00
43436;BME280;36399;51.444;-2.018;2023-06-22T09:39:18;101097.69;;;22.40;100.00
43436;BME280;36399;51.444;-2.018;2023-06-22T09:41:44;101090.25;;;22.51;100.00
43436;BME280;36399;51.444;-2.018;2023-06-22T09:44:10;101081.41;;;22.49;100.00
43436;BME280;36399;51.444;-2.018;2023-06-22T09:46:36;101060.41;;;22.66;100.00
43436;BME280;36399;51.444;-2.018;2023-06-22T09:49:02;101055.06;;;22.99;100.00
43436;BME280;36399;51.444;-2.018;2023-06-22T09:51:28;101051.91;;;23.45;100.00
43436;BME280;36399;51.444;-2.018;2023-06-22T09:53:54;101045.09;;;23.91;100.00
43436;BME280;36399;51.444;-2.018;2023-06-22T09:56:20;101033.72;;;24.11;100.00
43436;BME280;36399;51.444;-2.018;2023-06-22T09:58:47;101003.81;;;24.96;100.00
43436;BME280;36399;51.444;-2.018;2023-06-22T10:01:13;100987.81;;;25.40;100.00
43436;BME280;36399;51.444;-2.018;2023-06-22T10:03:47;100976.66;;;27.33;100.00
43436;BME280;36399;51.444;-2.018;2023-06-22T10:06:13;100966.75;;;29.07;100.00
43436;BME280;36399;51.444;-2.018;2023-06-22T10:08:40;100966.25;;;29.79;100.00
43436;BME280;36399;51.444;-2.018;2023-06-22T10:11:06;100969.06;;;29.46;100.00
43436;BME280;36399;51.444;-2.018;2023-06-22T10:13:32;100974.66;;;30.79;100.00
43436;BME280;36399;51.444;-2.018;2023-06-22T10:15:58;100962.94;;;29.27;100.00
43436;BME280;36399;51.444;-2.018;2023-06-22T10:18:24;100973.56;;;28.65;100.00
43436;BME280;36399;51.444;-2.018;2023-06-22T10:20:52;100975.97;;;29.51;100.00
43436;BME280;36399;51.444;-2.018;2023-06-22T10:23:21;100975.34;;;30.24;100.00
43436;BME280;36399;51.444;-2.018;2023-06-22T10:25:48;100971.19;;;30.46;100.00
43436;BME280;36399;51.444;-2.018;2023-06-22T10:28:14;100974.25;;;31.95;100.00
43436;BME280;36399;51.444;-2.018;2023-06-22T10:30:40;100963.66;;;33.19;94.70
43436;BME280;36399;51.444;-2.018;2023-06-22T10:33:10;100958.50;;;33.28;79.10
43436;BME280;36399;51.444;-2.018;2023-06-22T10:35:37;100960.38;;;33.40;86.26
43436;BME280;36399;51.444;-2.018;2023-06-22T10:38:03;100960.22;;;32.28;87.77
43436;BME280;36399;51.444;-2.018;2023-06-22T10:40:30;100964.34;;;32.59;72.15
43436;BME280;36399;51.444;-2.018;2023-06-22T10:42:56;100955.63;;;31.21;87.18
43436;BME280;36399;51.444;-2.018;2023-06-22T10:45:22;100962.91;;;30.64;98.72
43436;BME280;36399;51.444;-2.018;2023-06-22T10:47:48;100965.28;;;30.40;100.00
43436;BME280;36399;51.444;-2.018;2023-06-22T10:50:15;100959.81;;;29.66;100.00
43436;BME280;36399;51.444;-2.018;2023-06-22T10:52:41;100970.84;;;28.65;100.00
43436;BME280;36399;51.444;-2.018;2023-06-22T10:55:10;100974.56;;;27.57;100.00
43436;BME280;36399;51.444;-2.018;2023-06-22T10:57:36;100978.72;;;25.88;100.00
43436;BME280;36399;51.444;-2.018;2023-06-22T11:00:03;100988.13;;;25.98;100.00
43436;BME280;36399;51.444;-2.018;2023-06-22T11:02:31;100986.50;;;25.73;100.00
43436;BME280;36399;51.444;-2.018;2023-06-22T11:04:57;100987.22;;;25.55;100.00
43436;BME280;36399;51.444;-2.018;2023-06-22T11:07:26;100989.69;;;26.66;100.00
43436;BME280;36399;51.444;-2.018;2023-06-22T11:09:54;100981.19;;;28.22;100.00
43436;BME280;36399;51.444;-2.018;2023-06-22T11:12:20;100983.81;;;28.41;100.00
43436;BME280;36399;51.444;-2.018;2023-06-22T11:14:46;100982.66;;;28.80;100.00
43436;BME280;36399;51.444;-2.018;2023-06-22T11:17:12;100983.44;;;30.68;100.00
43436;BME280;36399;51.444;-2.018;2023-06-22T11:19:38;100973.19;;;31.01;100.00
43436;BME280;36399;51.444;-2.018;2023-06-22T11:22:04;100975.25;;;30.39;100.00
43436;BME280;36399;51.444;-2.018;2023-06-22T11:24:31;100973.47;;;29.94;100.00
43436;BME280;36399;51.444;-2.018;2023-06-22T11:26:58;100970.28;;;30.62;100.00
43436;BME280;36399;51.444;-2.018;2023-06-22T11:29:24;100969.56;;;29.37;100.00
43436;BME280;36399;51.444;-2.018;2023-06-22T11:31:50;100968.91;;;28.34;100.00
43436;BME280;36399;51.444;-2.018;2023-06-22T11:34:16;100972.88;;;26.80;100.00
43436;BME280;36399;51.444;-2.018;2023-06-22T11:36:42;100978.38;;;26.58;100.00
43436;BME280;36399;51.444;-2.018;2023-06-22T11:39:08;100968.34;;;27.19;100.00
43436;BME280;36399;51.444;-2.018;2023-06-22T11:41:35;100964.53;;;28.32;100.00
43436;BME280;36399;51.444;-2.018;2023-06-22T11:44:01;100959.31;;;29.43;100.00
43436;BME280;36399;51.444;-2.018;2023-06-22T11:46:27;100947.28;;;31.38;100.00
43436;BME280;36399;51.444;-2.018;2023-06-22T11:48:53;100950.78;;;31.94;100.00
43436;BME280;36399;51.444;-2.018;2023-06-22T11:51:19;100953.13;;;31.32;100.00
43436;BME280;36399;51.444;-2.018;2023-06-22T11:53:45;100955.72;;;29.27;100.00
43436;BME280;36399;51.444;-2.018;2023-06-22T11:56:14;100955.44;;;27.26;100.00
43436;BME280;36399;51.444;-2.018;2023-06-22T11:58:40;100967.47;;;26.40;100.00
43436;BME280;36399;51.444;-2.018;2023-06-22T12:01:06;100972.22;;;25.71;100.00
43436;BME280;36399;51.444;-2.018;2023-06-22T12:03:32;100964.09;;;25.06;100.00
43436;BME280;36399;51.444;-2.018;2023-06-22T12:05:59;100963.28;;;26.13;100.00
43436;BME280;36399;51.444;-2.018;2023-06-22T12:08:25;100956.78;;;26.97;100.00
43436;BME280;36399;51.444;-2.018;2023-06-22T12:10:51;100948.53;;;28.44;100.00
43436;BME280;36399;51.444;-2.018;2023-06-22T12:13:17;100947.16;;;29.19;100.00
43436;BME280;36399;51.444;-2.018;2023-06-22T12:15:43;100942.25;;;29.41;100.00
43436;BME280;36399;51.444;-2.018;2023-06-22T12:18:10;100945.66;;;29.61;100.00
43436;BME280;36399;51.444;-2.018;2023-06-22T12:20:38;100948.69;;;30.60;100.00
43436;BME280;36399;51.444;-2.018;2023-06-22T12:23:04;100934.59;;;31.39;100.00
43436;BME280;36399;51.444;-2.018;2023-06-22T12:25:30;100933.03;;;31.76;100.00
43436;BME280;36399;51.444;-2.018;2023-06-22T12:27:56;100930.44;;;31.60;99.13
43436;BME280;36399;51.444;-2.018;2023-06-22T12:30:23;100932.22;;;29.59;100.00
43436;BME280;36399;51.444;-2.018;2023-06-22T12:32:49;100930.84;;;29.36;100.00
43436;BME280;36399;51.444;-2.018;2023-06-22T12:35:16;100928.38;;;29.79;100.00
43436;BME280;36399;51.444;-2.018;2023-06-22T12:37:42;100921.66;;;30.00;100.00